createdAt,value
2017-06-20T00:00:51.625Z,1009.32
2017-06-20T00:10:51.590Z,1009.25
2017-06-20T00:20:51.653Z,1009.17
2017-06-20T00:30:51.602Z,1009.15
2017-06-20T00:40:51.666Z,1009.1
2017-06-20T00:50:51.625Z,1009.1
2017-06-20T01:00:51.581Z,1009.09
2017-06-20T01:10:51.657Z,1009.12
2017-06-20T01:20:51.618Z,1009.15
2017-06-20T01:30:51.588Z,1009.16
2017-06-20T01:40:51.637Z,1009.1
2017-06-20T01:50:51.606Z,1009
2017-06-20T02:00:51.656Z,1009.07
2017-06-20T02:10:51.621Z,1009.06
2017-06-20T02:20:51.580Z,1009.06
2017-06-20T02:30:51.662Z,1009.05
2017-06-20T02:40:51.624Z,1009.06
2017-06-20T02:50:51.681Z,1009.04
2017-06-20T03:00:51.630Z,1009.04
2017-06-20T03:10:51.590Z,1009.02
2017-06-20T03:20:51.659Z,1009.03
2017-06-20T03:30:51.620Z,1009.11
2017-06-20T03:40:51.695Z,1009.09
2017-06-20T03:50:51.647Z,1009.12
2017-06-20T04:00:51.606Z,1009.22
2017-06-20T04:10:51.692Z,1009.3
2017-06-20T04:20:51.624Z,1009.23
2017-06-20T04:30:51.598Z,1009.17
2017-06-20T04:40:51.659Z,1009.23
2017-06-20T04:50:51.605Z,1009.21
2017-06-20T05:00:51.686Z,1009.38
2017-06-20T05:10:51.642Z,1009.45
2017-06-20T05:20:51.659Z,1009.55
2017-06-20T05:30:51.599Z,1009.51
2017-06-20T05:40:51.672Z,1009.63
2017-06-20T05:50:51.694Z,1009.64
2017-06-20T06:00:51.688Z,1009.92
2017-06-20T06:10:51.649Z,1010.01
2017-06-20T06:20:51.604Z,1009.86
2017-06-20T06:30:51.676Z,1009.89
2017-06-20T06:40:51.956Z,1009.97
2017-06-20T06:50:51.706Z,1009.99
2017-06-20T07:00:51.653Z,1010.07
2017-06-20T07:10:51.614Z,1010.14
2017-06-20T07:20:51.675Z,1010.21
2017-06-20T07:30:51.633Z,1010.3
2017-06-20T07:40:51.726Z,1010.33
2017-06-20T07:50:51.623Z,1010.49
2017-06-20T08:00:51.630Z,1010.5
2017-06-20T08:10:51.629Z,1010.45
2017-06-20T08:20:51.642Z,1010.51
2017-06-20T08:30:51.630Z,1010.49
2017-06-20T08:40:51.644Z,1010.59
2017-06-20T08:50:51.637Z,1010.57
2017-06-20T09:00:51.675Z,1010.51
2017-06-20T09:10:51.640Z,1010.62
2017-06-20T09:20:51.643Z,1010.61
2017-06-20T09:30:51.678Z,1010.65
2017-06-20T09:40:51.658Z,1010.61
2017-06-20T09:50:51.650Z,1010.59
2017-06-20T10:00:51.655Z,1010.56
2017-06-20T10:10:51.660Z,1010.49
2017-06-20T10:20:51.697Z,1010.45
2017-06-20T10:30:51.674Z,1010.44
2017-06-20T10:40:51.675Z,1010.4
2017-06-20T10:50:51.675Z,1010.42
2017-06-20T11:00:51.688Z,1010.42
2017-06-20T11:10:51.793Z,1010.42
2017-06-20T11:20:51.684Z,1010.36
2017-06-20T11:30:51.719Z,1010.3
2017-06-20T11:40:51.684Z,1010.35
2017-06-20T11:50:51.680Z,1010.36
2017-06-20T12:00:51.706Z,1010.35
2017-06-20T12:10:51.700Z,1010.33
2017-06-20T12:20:51.701Z,1010.25
2017-06-20T12:30:51.714Z,1010.24
2017-06-20T12:40:51.748Z,1010.28
2017-06-20T12:50:51.730Z,1010.25
2017-06-20T13:00:51.780Z,1010.19
2017-06-20T13:10:51.742Z,1010.19
2017-06-20T13:20:51.809Z,1010.21
2017-06-20T13:30:51.757Z,1010.21
2017-06-20T13:40:51.829Z,1010.27
2017-06-20T13:50:51.743Z,1010.27
2017-06-20T14:00:51.748Z,1010.34
2017-06-20T14:10:51.802Z,1010.48
2017-06-20T14:20:51.780Z,1010.38
2017-06-20T14:30:51.825Z,1010.37
2017-06-20T14:40:51.792Z,1010.36
2017-06-20T14:50:51.854Z,1010.44
2017-06-20T15:00:51.825Z,1010.45
2017-06-20T15:10:51.777Z,1010.24
2017-06-20T15:20:51.857Z,1010.15
2017-06-20T15:30:51.803Z,1010.32
2017-06-20T15:40:51.824Z,1010.32
2017-06-20T15:50:51.879Z,1010.41
2017-06-20T16:00:51.758Z,1010.35
2017-06-20T16:10:51.774Z,1010.52
2017-06-20T16:20:52.066Z,1010.44
2017-06-20T16:30:51.782Z,1010.57
2017-06-20T16:40:51.813Z,1010.51
2017-06-20T16:50:51.782Z,1010.6
2017-06-20T17:00:51.790Z,1010.62
2017-06-20T17:10:52.803Z,1010.61
2017-06-20T17:20:51.805Z,1010.64
2017-06-20T17:30:51.787Z,1010.63
2017-06-20T17:40:51.792Z,1010.65
2017-06-20T17:50:51.799Z,1010.74
2017-06-20T18:00:51.796Z,1010.75
2017-06-20T18:10:51.799Z,1010.82
2017-06-20T18:20:51.795Z,1010.99
2017-06-20T18:30:51.922Z,1011.17
2017-06-20T18:40:51.818Z,1011.33
2017-06-20T18:50:51.881Z,1011.33
2017-06-20T19:00:51.921Z,1011.43
2017-06-20T19:10:51.888Z,1011.54
2017-06-20T19:20:51.809Z,1011.55
2017-06-20T19:30:52.419Z,1011.75
2017-06-20T19:40:51.805Z,1011.81
2017-06-20T19:50:51.822Z,1011.92
2017-06-20T20:00:51.824Z,1012.07
2017-06-20T20:10:51.854Z,1012.13
2017-06-20T20:20:52.065Z,1012.12
2017-06-20T20:30:51.868Z,1012.13
2017-06-20T20:40:51.950Z,1012.3
2017-06-20T20:50:51.891Z,1012.31
2017-06-20T21:00:51.849Z,1012.42
2017-06-20T21:10:51.914Z,1012.39
2017-06-20T21:20:51.869Z,1012.29
2017-06-20T21:30:51.847Z,1012.38
2017-06-20T21:40:51.887Z,1012.46
2017-06-20T21:50:51.871Z,1012.43
2017-06-20T22:00:52.010Z,1012.57
2017-06-20T22:10:51.823Z,1012.51
2017-06-20T22:20:51.848Z,1012.46
2017-06-20T22:30:51.910Z,1012.39
2017-06-20T22:40:51.870Z,1012.43
2017-06-20T22:50:51.926Z,1012.47
2017-06-20T23:00:51.892Z,1012.54
2017-06-20T23:10:51.835Z,1012.6
2017-06-20T23:20:51.903Z,1012.69
2017-06-20T23:30:51.868Z,1012.61
2017-06-20T23:40:52.000Z,1012.55
2017-06-20T23:50:52.089Z,1012.54
